Wisconsin Rapids, WI (54494)

6:24 PM CDT on July 24, 2016 (GMT -0500)
South East Grand Rapids, WI | | Change Station

Elev 1073 ft 44.34 °N, 89.77 °W | Updated 6 seconds ago

Partly Cloudy
Partly Cloudy
81.0 °F
Feels Like 85 °F
N
0.0
Wind Variable Wind from SW
Gusts 1.0 mph

Today
High -- | Low -- °F
--% Chance of Precip.
Yesterday
High -- | Low -- °F
Precip. -- in
Pressure 29.86 in
Visibility 10.0 miles
Clouds Few 4700 ft
Heat Index 85 °F
Dew Point 71 °F
Humidity 71%
Rainfall 0.15 in
Snow Depth Not available.
5:38 AM 8:32 PM
Waning Gibbous, 72% visible
METAR KISW 242254Z AUTO 30010KT 10SM FEW047 30/18 A2988 RMK AO2 SLP112 T03000178
Pressure 29.86 in
Visibility 10.0 miles
Clouds Few 4700 ft
Heat Index 85 °F
Dew Point 71 °F
Humidity 71%
Rainfall 0.15 in
Snow Depth Not available.
5:38 AM 8:32 PM
Waning Gibbous, 72% visible
METAR KISW 242254Z AUTO 30010KT 10SM FEW047 30/18 A2988 RMK AO2 SLP112 T03000178

10-Day Weather Forecast

Almanac

Astronomy

Jul. 24, 2016 Rise Set
Actual Time
Civil Twilight
Nautical Twilight
Astronomical Twilight
Moon
Length of Visible Light
Length of Day
Tomorrow will be .
, % of the Moon is Illuminated

Today's Extremes

State Highs State Lows

Community

WunderPhotos

Upload Photos

1,927,205 photos uploaded!

WunderBlog® & News

Nearby

Air Quality

  Air Quality AQ Index Pollutant
Not available.

Snow Depth

Station Depth Elevation

Earthquake Activity

City Distance Mag. Time & Date
Minimum magnitude displayed is 2.5.

Coastal Water Temperatures

Place Temperature

Stations

Nearby Weather Stations

Station Location Temp. Windchill Dew Point Humidity Wind Precip. Elev Updated Type
                   

Watches & Warnings

There are currently no watches in effect.